QFA434 YMML-YSSY
Flight info
| Callsign | QFA434 |
|---|---|
| Flight time | N/A |
| Altitude | 37000 |
| Route | DOSEL Y59 RIVET |
| Aircraft | B738/M-SDE2E3FGHIRWXY/LB1 |
Departure
| Time | 2026-05-08 03:22 |
|---|---|
| Airport | Melbourne Airport (YMML) |
Arrival
| Time | N/A |
|---|---|
| Airport | Sydney Kingsford Smith International Airport (YSSY) |
| Time | Latitude | Longitude | Altitude | Speed | Heading |
|---|---|---|---|---|---|
| 2026-05-08 03:02 | -37.66778 | 144.85157 | 396 ft | 0 kts | 82° |
| 2026-05-08 03:14 | -37.66778 | 144.85156 | 396 ft | 2 kts | 82° |
| 2026-05-08 03:14 | -37.66782 | 144.85124 | 397 ft | 4 kts | 82° |
| 2026-05-08 03:14 | -37.66790 | 144.85096 | 394 ft | 4 kts | 37° |
| 2026-05-08 03:15 | -37.66813 | 144.85086 | 396 ft | 3 kts | 2° |
| 2026-05-08 03:15 | -37.66820 | 144.85086 | 397 ft | 0 kts | 1° |
| 2026-05-08 03:19 | -37.66816 | 144.85086 | 397 ft | 1 kts | 1° |
| 2026-05-08 03:19 | -37.66805 | 144.85086 | 395 ft | 2 kts | 1° |
| 2026-05-08 03:19 | -37.66787 | 144.85087 | 395 ft | 3 kts | 1° |
| 2026-05-08 03:19 | -37.66760 | 144.85088 | 397 ft | 4 kts | 1° |
| 2026-05-08 03:20 | -37.66728 | 144.85086 | 397 ft | 5 kts | 354° |
| 2026-05-08 03:20 | -37.66686 | 144.85079 | 399 ft | 7 kts | 352° |
| 2026-05-08 03:20 | -37.66639 | 144.85071 | 401 ft | 7 kts | 352° |
| 2026-05-08 03:20 | -37.66572 | 144.85061 | 403 ft | 12 kts | 358° |
| 2026-05-08 03:21 | -37.66473 | 144.85032 | 403 ft | 17 kts | 330° |
| 2026-05-08 03:21 | -37.66367 | 144.84930 | 408 ft | 21 kts | 321° |
| 2026-05-08 03:21 | -37.66253 | 144.84807 | 411 ft | 22 kts | 308° |
| 2026-05-08 03:21 | -37.66214 | 144.84581 | 412 ft | 50 kts | 274° |
| 2026-05-08 03:22 | -37.66173 | 144.83735 | 414 ft | 139 kts | 271° |
| 2026-05-08 03:22 | -37.66098 | 144.82346 | 1088 ft | 168 kts | 270° |
| 2026-05-08 03:22 | -37.65993 | 144.80938 | 2518 ft | 157 kts | 269° |
| 2026-05-08 03:22 | -37.65906 | 144.79427 | 3054 ft | 193 kts | 268° |
| 2026-05-08 03:23 | -37.65799 | 144.77605 | 3335 ft | 224 kts | 269° |
| 2026-05-08 03:23 | -37.65622 | 144.75517 | 3599 ft | 253 kts | 272° |
| 2026-05-08 03:23 | -37.65357 | 144.73185 | 3328 ft | 292 kts | 275° |
| 2026-05-08 03:23 | -37.64924 | 144.70630 | 3518 ft | 286 kts | 276° |